Etusivu
METAR-TAF:

METAR-TAF

Lentoasemat :

Grand Turk, Turks- ja Caicossaaret

Leveyspiiri: 21-26-40N, Pituuspiiri: 071-08-32W, korkeus merenpinnasta: 4 m

Tämänhetkinen sää

Tämä raportti tehtiin 35 minuuttia sitten, kello 20.00 UTC
Tuuli 11 kn idästä
Lämpötila 30°C
Kosteus 70%
Ilmanpaine 1016 hPa
Näkyvyys 10 km tai enemmän
Hajanaisia pilviä 1500 ft:n korkeudessa
Hajanaisia pilviä 5000 ft:n korkeudessa

METAR: MBGT 262000Z 10011KT 9999 SCT015 SCT050 30/24 Q1016

Aika: 16:35 (20:35 UTC)

Sääennuste

Tämä raportti tehtiin 5 tuntia ja 5 minuuttia sitten, kello 15.30 UTC
Ennuste voimassa 26. päivästä klo 18 UTC - 27. päivään klo 18 UTC
Tuuli 10 kn idästä/kaakosta
Näkyvyys: 9000 m
Muutamia pilviä 1500 ft:n korkeudessa, Cumulonimbus.
Hajanaisia pilviä 2000 ft:n korkeudessa
Hajanaisia pilviä 2200 ft:n korkeudessa
sadekuuroja näköpiirissä, usvaa

TAF: MBGT 261530Z 2618/2718 12010KT 9999 VCSH FEW015CB SCT020 BECMH 2704/2706 9000 HZ SCT022

Säähavainnot ja -ennusteet yli 4000 lentoasemalta (METAR- ja TAF-raportit).

Käytössä olevat sääasemat on merkitty karttaan keltaisilla ja punaisilla pisteillä.

Aseta hiiri pisteen päälle nähdäksesi sääaseman nimen.

Klikkaa sitten nähdäksesi säähavainnot ja -ennusteet.

Kartan vaihtaminen: klikkaa mustalla rastilla varustettuja vihreitä pisteitä, niin voit zoomata sisään; viivalla varustettua vihreää pistettä, niin voit zoomata ulos tai vihreitä nuolia, niin pääset viereisille kartoille.


METAR-TAF: